sensor_id;sensor_type;location;lat;lon;timestamp;P1;durP1;ratioP1;P2;durP2;ratioP2
64832;SDS011;51290;45.060;38.948;2023-06-05T00:00:49;6.78;;;4.93;;
64832;SDS011;51290;45.060;38.948;2023-06-05T00:03:15;9.55;;;5.93;;
64832;SDS011;51290;45.060;38.948;2023-06-05T00:05:43;8.20;;;5.55;;
64832;SDS011;51290;45.060;38.948;2023-06-05T00:08:09;6.85;;;4.93;;
64832;SDS011;51290;45.060;38.948;2023-06-05T00:10:35;10.30;;;5.63;;
64832;SDS011;51290;45.060;38.948;2023-06-05T00:13:01;5.82;;;4.85;;
64832;SDS011;51290;45.060;38.948;2023-06-05T00:15:27;7.15;;;5.50;;
64832;SDS011;51290;45.060;38.948;2023-06-05T00:17:53;7.60;;;5.18;;
64832;SDS011;51290;45.060;38.948;2023-06-05T00:20:20;7.53;;;5.57;;
64832;SDS011;51290;45.060;38.948;2023-06-05T00:22:46;7.38;;;5.13;;
64832;SDS011;51290;45.060;38.948;2023-06-05T00:25:14;5.53;;;4.47;;
64832;SDS011;51290;45.060;38.948;2023-06-05T00:27:40;6.95;;;5.35;;
64832;SDS011;51290;45.060;38.948;2023-06-05T00:30:07;6.70;;;5.28;;
64832;SDS011;51290;45.060;38.948;2023-06-05T00:32:35;8.93;;;5.75;;
64832;SDS011;51290;45.060;38.948;2023-06-05T00:35:01;8.68;;;6.32;;
64832;SDS011;51290;45.060;38.948;2023-06-05T00:37:28;6.68;;;5.63;;
64832;SDS011;51290;45.060;38.948;2023-06-05T00:39:54;7.28;;;5.82;;
64832;SDS011;51290;45.060;38.948;2023-06-05T00:42:20;8.15;;;5.82;;
64832;SDS011;51290;45.060;38.948;2023-06-05T00:44:46;6.72;;;4.70;;
64832;SDS011;51290;45.060;38.948;2023-06-05T00:47:13;7.57;;;5.70;;
64832;SDS011;51290;45.060;38.948;2023-06-05T00:49:40;7.45;;;5.63;;
64832;SDS011;51290;45.060;38.948;2023-06-05T00:52:06;5.80;;;5.00;;
64832;SDS011;51290;45.060;38.948;2023-06-05T00:54:33;6.78;;;5.50;;
64832;SDS011;51290;45.060;38.948;2023-06-05T00:56:59;7.90;;;6.10;;
64832;SDS011;51290;45.060;38.948;2023-06-05T00:59:26;6.43;;;5.53;;
64832;SDS011;51290;45.060;38.948;2023-06-05T01:01:52;21.27;;;7.03;;
64832;SDS011;51290;45.060;38.948;2023-06-05T01:04:18;7.32;;;5.68;;
64832;SDS011;51290;45.060;38.948;2023-06-05T01:06:44;7.82;;;5.43;;
64832;SDS011;51290;45.060;38.948;2023-06-05T01:09:11;8.68;;;6.07;;
64832;SDS011;51290;45.060;38.948;2023-06-05T01:12:00;12.50;;;6.10;;
64832;SDS011;51290;45.060;38.948;2023-06-05T01:14:28;5.45;;;4.88;;
64832;SDS011;51290;45.060;38.948;2023-06-05T01:16:56;7.47;;;5.35;;
64832;SDS011;51290;45.060;38.948;2023-06-05T01:19:26;7.20;;;5.50;;
64832;SDS011;51290;45.060;38.948;2023-06-05T01:21:59;14.90;;;5.82;;
64832;SDS011;51290;45.060;38.948;2023-06-05T01:24:27;6.60;;;5.43;;
64832;SDS011;51290;45.060;38.948;2023-06-05T01:29:34;7.63;;;5.82;;
64832;SDS011;51290;45.060;38.948;2023-06-05T01:32:02;8.32;;;5.72;;
64832;SDS011;51290;45.060;38.948;2023-06-05T01:34:33;7.00;;;5.20;;
64832;SDS011;51290;45.060;38.948;2023-06-05T01:37:02;9.88;;;6.25;;
64832;SDS011;51290;45.060;38.948;2023-06-05T01:39:29;10.65;;;5.80;;
64832;SDS011;51290;45.060;38.948;2023-06-05T01:41:56;8.07;;;5.65;;
64832;SDS011;51290;45.060;38.948;2023-06-05T01:44:24;6.85;;;5.63;;
64832;SDS011;51290;45.060;38.948;2023-06-05T01:46:51;6.93;;;5.63;;
64832;SDS011;51290;45.060;38.948;2023-06-05T01:49:18;8.50;;;6.28;;
64832;SDS011;51290;45.060;38.948;2023-06-05T01:51:45;6.35;;;5.50;;
64832;SDS011;51290;45.060;38.948;2023-06-05T01:54:11;5.18;;;4.68;;
64832;SDS011;51290;45.060;38.948;2023-06-05T01:56:37;6.38;;;5.03;;
64832;SDS011;51290;45.060;38.948;2023-06-05T01:59:05;6.78;;;4.97;;
64832;SDS011;51290;45.060;38.948;2023-06-05T02:01:32;8.40;;;5.93;;
64832;SDS011;51290;45.060;38.948;2023-06-05T02:03:58;8.98;;;5.80;;
64832;SDS011;51290;45.060;38.948;2023-06-05T02:06:24;7.63;;;5.63;;
64832;SDS011;51290;45.060;38.948;2023-06-05T02:08:50;6.05;;;4.75;;
64832;SDS011;51290;45.060;38.948;2023-06-05T02:11:16;6.70;;;5.00;;
64832;SDS011;51290;45.060;38.948;2023-06-05T02:13:42;5.03;;;4.20;;
64832;SDS011;51290;45.060;38.948;2023-06-05T02:16:10;6.55;;;4.95;;
64832;SDS011;51290;45.060;38.948;2023-06-05T02:18:36;6.10;;;4.85;;
64832;SDS011;51290;45.060;38.948;2023-06-05T02:21:03;5.65;;;4.82;;
64832;SDS011;51290;45.060;38.948;2023-06-05T02:23:29;7.78;;;5.25;;
64832;SDS011;51290;45.060;38.948;2023-06-05T02:25:56;6.20;;;4.57;;
64832;SDS011;51290;45.060;38.948;2023-06-05T02:28:22;8.68;;;5.28;;
64832;SDS011;51290;45.060;38.948;2023-06-05T02:30:48;7.20;;;5.13;;
64832;SDS011;51290;45.060;38.948;2023-06-05T02:33:37;15.65;;;4.63;;
64832;SDS011;51290;45.060;38.948;2023-06-05T02:36:04;5.97;;;4.30;;
64832;SDS011;51290;45.060;38.948;2023-06-05T02:38:30;6.50;;;3.88;;
64832;SDS011;51290;45.060;38.948;2023-06-05T02:40:56;4.78;;;3.95;;
64832;SDS011;51290;45.060;38.948;2023-06-05T02:43:30;19.13;;;5.32;;
64832;SDS011;51290;45.060;38.948;2023-06-05T02:45:57;15.23;;;4.35;;
64832;SDS011;51290;45.060;38.948;2023-06-05T02:48:23;6.00;;;4.43;;
64832;SDS011;51290;45.060;38.948;2023-06-05T02:50:50;13.05;;;5.18;;
64832;SDS011;51290;45.060;38.948;2023-06-05T02:53:16;6.15;;;3.92;;
64832;SDS011;51290;45.060;38.948;2023-06-05T02:55:43;5.47;;;4.20;;
64832;SDS011;51290;45.060;38.948;2023-06-05T02:58:13;5.70;;;4.47;;
64832;SDS011;51290;45.060;38.948;2023-06-05T03:00:46;11.77;;;5.45;;
64832;SDS011;51290;45.060;38.948;2023-06-05T03:03:14;5.03;;;4.20;;
64832;SDS011;51290;45.060;38.948;2023-06-05T03:05:42;6.05;;;4.35;;
64832;SDS011;51290;45.060;38.948;2023-06-05T03:08:14;11.43;;;4.75;;
64832;SDS011;51290;45.060;38.948;2023-06-05T03:10:40;7.95;;;4.78;;
64832;SDS011;51290;45.060;38.948;2023-06-05T03:13:08;5.68;;;4.15;;
64832;SDS011;51290;45.060;38.948;2023-06-05T03:15:36;5.68;;;3.92;;
64832;SDS011;51290;45.060;38.948;2023-06-05T03:18:04;7.28;;;4.43;;
64832;SDS011;51290;45.060;38.948;2023-06-05T03:20:30;5.90;;;4.45;;
64832;SDS011;51290;45.060;38.948;2023-06-05T03:22:56;7.20;;;4.28;;
64832;SDS011;51290;45.060;38.948;2023-06-05T03:25:23;9.73;;;6.22;;
64832;SDS011;51290;45.060;38.948;2023-06-05T03:27:53;5.45;;;4.10;;
64832;SDS011;51290;45.060;38.948;2023-06-05T03:30:21;6.43;;;4.28;;
64832;SDS011;51290;45.060;38.948;2023-06-05T03:32:52;6.82;;;4.85;;
64832;SDS011;51290;45.060;38.948;2023-06-05T03:35:21;8.00;;;5.88;;
64832;SDS011;51290;45.060;38.948;2023-06-05T03:37:47;8.20;;;4.97;;
64832;SDS011;51290;45.060;38.948;2023-06-05T03:40:13;5.35;;;4.25;;
64832;SDS011;51290;45.060;38.948;2023-06-05T03:42:39;7.93;;;4.75;;
64832;SDS011;51290;45.060;38.948;2023-06-05T03:45:05;9.02;;;5.28;;
64832;SDS011;51290;45.060;38.948;2023-06-05T03:47:32;8.45;;;5.13;;
64832;SDS011;51290;45.060;38.948;2023-06-05T03:50:00;5.05;;;4.18;;
64832;SDS011;51290;45.060;38.948;2023-06-05T03:52:30;5.70;;;4.15;;
64832;SDS011;51290;45.060;38.948;2023-06-05T03:54:56;4.40;;;3.95;;
64832;SDS011;51290;45.060;38.948;2023-06-05T03:57:22;5.80;;;4.22;;
64832;SDS011;51290;45.060;38.948;2023-06-05T03:59:50;5.57;;;4.38;;
64832;SDS011;51290;45.060;38.948;2023-06-05T04:02:17;4.50;;;4.05;;
64832;SDS011;51290;45.060;38.948;2023-06-05T04:04:43;6.30;;;4.75;;
64832;SDS011;51290;45.060;38.948;2023-06-05T04:07:09;5.35;;;4.30;;
64832;SDS011;51290;45.060;38.948;2023-06-05T04:09:36;11.75;;;5.38;;
64832;SDS011;51290;45.060;38.948;2023-06-05T04:12:02;6.47;;;4.40;;
64832;SDS011;51290;45.060;38.948;2023-06-05T04:14:34;7.15;;;4.22;;
64832;SDS011;51290;45.060;38.948;2023-06-05T04:17:01;6.47;;;4.55;;
64832;SDS011;51290;45.060;38.948;2023-06-05T04:19:29;5.68;;;4.47;;
64832;SDS011;51290;45.060;38.948;2023-06-05T04:21:57;6.88;;;4.30;;
64832;SDS011;51290;45.060;38.948;2023-06-05T04:24:24;6.75;;;4.40;;
64832;SDS011;51290;45.060;38.948;2023-06-05T04:26:50;3.38;;;2.95;;
64832;SDS011;51290;45.060;38.948;2023-06-05T04:29:18;6.68;;;3.88;;
64832;SDS011;51290;45.060;38.948;2023-06-05T04:31:45;6.22;;;4.55;;
64832;SDS011;51290;45.060;38.948;2023-06-05T04:34:13;6.90;;;4.13;;
64832;SDS011;51290;45.060;38.948;2023-06-05T04:36:40;4.93;;;3.72;;
64832;SDS011;51290;45.060;38.948;2023-06-05T04:39:08;4.70;;;3.65;;
64832;SDS011;51290;45.060;38.948;2023-06-05T04:41:41;5.32;;;3.80;;
64832;SDS011;51290;45.060;38.948;2023-06-05T04:44:20;6.65;;;4.38;;
64832;SDS011;51290;45.060;38.948;2023-06-05T04:46:46;4.50;;;3.35;;
64832;SDS011;51290;45.060;38.948;2023-06-05T04:49:13;4.28;;;3.67;;
64832;SDS011;51290;45.060;38.948;2023-06-05T04:51:40;4.63;;;3.60;;
64832;SDS011;51290;45.060;38.948;2023-06-05T04:54:13;4.85;;;4.03;;
64832;SDS011;51290;45.060;38.948;2023-06-05T04:56:39;5.60;;;3.83;;
64832;SDS011;51290;45.060;38.948;2023-06-05T04:59:06;5.18;;;3.90;;
64832;SDS011;51290;45.060;38.948;2023-06-05T05:01:32;5.70;;;3.97;;
64832;SDS011;51290;45.060;38.948;2023-06-05T05:03:59;4.95;;;3.67;;
64832;SDS011;51290;45.060;38.948;2023-06-05T05:06:25;6.50;;;3.95;;
64832;SDS011;51290;45.060;38.948;2023-06-05T05:08:51;3.65;;;3.33;;
64832;SDS011;51290;45.060;38.948;2023-06-05T05:11:17;3.80;;;3.40;;
64832;SDS011;51290;45.060;38.948;2023-06-05T05:16:21;6.78;;;4.85;;
64832;SDS011;51290;45.060;38.948;2023-06-05T05:18:48;6.60;;;4.57;;
64832;SDS011;51290;45.060;38.948;2023-06-05T05:21:14;6.75;;;4.07;;
64832;SDS011;51290;45.060;38.948;2023-06-05T05:23:42;5.55;;;3.60;;
64832;SDS011;51290;45.060;38.948;2023-06-05T05:26:09;7.40;;;4.57;;
64832;SDS011;51290;45.060;38.948;2023-06-05T05:28:36;5.57;;;4.38;;
64832;SDS011;51290;45.060;38.948;2023-06-05T05:31:04;5.38;;;3.63;;
64832;SDS011;51290;45.060;38.948;2023-06-05T05:33:32;4.90;;;3.85;;
64832;SDS011;51290;45.060;38.948;2023-06-05T05:35:59;8.75;;;4.75;;
64832;SDS011;51290;45.060;38.948;2023-06-05T05:38:25;4.20;;;3.55;;
64832;SDS011;51290;45.060;38.948;2023-06-05T05:40:51;3.40;;;3.10;;
64832;SDS011;51290;45.060;38.948;2023-06-05T05:43:17;5.68;;;3.60;;
64832;SDS011;51290;45.060;38.948;2023-06-05T05:45:43;4.43;;;3.65;;
64832;SDS011;51290;45.060;38.948;2023-06-05T05:48:10;7.45;;;4.03;;
64832;SDS011;51290;45.060;38.948;2023-06-05T05:50:36;5.10;;;3.88;;
64832;SDS011;51290;45.060;38.948;2023-06-05T05:53:03;8.77;;;4.03;;
64832;SDS011;51290;45.060;38.948;2023-06-05T05:55:29;4.10;;;3.55;;
64832;SDS011;51290;45.060;38.948;2023-06-05T05:57:55;6.80;;;3.95;;
64832;SDS011;51290;45.060;38.948;2023-06-05T06:00:21;4.70;;;3.92;;
64832;SDS011;51290;45.060;38.948;2023-06-05T06:02:47;7.28;;;4.47;;
64832;SDS011;51290;45.060;38.948;2023-06-05T06:05:22;6.25;;;4.50;;
64832;SDS011;51290;45.060;38.948;2023-06-05T06:07:48;5.13;;;4.10;;
64832;SDS011;51290;45.060;38.948;2023-06-05T06:10:14;8.93;;;4.78;;
64832;SDS011;51290;45.060;38.948;2023-06-05T06:12:40;8.05;;;4.55;;
64832;SDS011;51290;45.060;38.948;2023-06-05T06:15:07;5.57;;;4.00;;
64832;SDS011;51290;45.060;38.948;2023-06-05T06:17:33;9.85;;;4.43;;
64832;SDS011;51290;45.060;38.948;2023-06-05T06:19:59;6.25;;;4.40;;
64832;SDS011;51290;45.060;38.948;2023-06-05T06:22:25;7.10;;;4.82;;
64832;SDS011;51290;45.060;38.948;2023-06-05T06:24:52;7.47;;;4.10;;
64832;SDS011;51290;45.060;38.948;2023-06-05T06:27:19;4.38;;;3.67;;
64832;SDS011;51290;45.060;38.948;2023-06-05T06:29:48;6.82;;;4.22;;
64832;SDS011;51290;45.060;38.948;2023-06-05T06:32:17;4.88;;;3.70;;
64832;SDS011;51290;45.060;38.948;2023-06-05T06:34:44;4.65;;;3.47;;
64832;SDS011;51290;45.060;38.948;2023-06-05T06:37:12;4.70;;;4.07;;
64832;SDS011;51290;45.060;38.948;2023-06-05T06:39:39;7.28;;;4.55;;
64832;SDS011;51290;45.060;38.948;2023-06-05T06:42:06;6.22;;;4.00;;
64832;SDS011;51290;45.060;38.948;2023-06-05T06:44:35;6.25;;;4.50;;
64832;SDS011;51290;45.060;38.948;2023-06-05T06:47:01;6.10;;;4.07;;
64832;SDS011;51290;45.060;38.948;2023-06-05T06:49:27;4.88;;;3.95;;
64832;SDS011;51290;45.060;38.948;2023-06-05T06:51:53;6.20;;;4.38;;
64832;SDS011;51290;45.060;38.948;2023-06-05T06:54:20;9.75;;;4.35;;
64832;SDS011;51290;45.060;38.948;2023-06-05T06:56:47;6.03;;;4.18;;
64832;SDS011;51290;45.060;38.948;2023-06-05T06:59:14;7.65;;;4.80;;
64832;SDS011;51290;45.060;38.948;2023-06-05T07:01:44;7.45;;;4.25;;
64832;SDS011;51290;45.060;38.948;2023-06-05T07:04:29;10.38;;;4.70;;
64832;SDS011;51290;45.060;38.948;2023-06-05T07:07:03;4.00;;;3.50;;
64832;SDS011;51290;45.060;38.948;2023-06-05T07:09:29;8.25;;;4.63;;
64832;SDS011;51290;45.060;38.948;2023-06-05T07:11:56;5.13;;;4.10;;
64832;SDS011;51290;45.060;38.948;2023-06-05T07:14:21;6.13;;;4.70;;
64832;SDS011;51290;45.060;38.948;2023-06-05T07:16:47;7.43;;;4.85;;
64832;SDS011;51290;45.060;38.948;2023-06-05T07:19:17;10.30;;;4.53;;
64832;SDS011;51290;45.060;38.948;2023-06-05T07:21:43;6.20;;;4.25;;
64832;SDS011;51290;45.060;38.948;2023-06-05T07:24:09;7.47;;;4.45;;
64832;SDS011;51290;45.060;38.948;2023-06-05T07:26:35;5.60;;;3.90;;
64832;SDS011;51290;45.060;38.948;2023-06-05T07:29:01;15.45;;;5.28;;
64832;SDS011;51290;45.060;38.948;2023-06-05T07:31:30;7.43;;;5.03;;
64832;SDS011;51290;45.060;38.948;2023-06-05T07:33:56;6.82;;;4.30;;
64832;SDS011;51290;45.060;38.948;2023-06-05T07:36:22;7.03;;;3.80;;
64832;SDS011;51290;45.060;38.948;2023-06-05T07:38:48;7.40;;;4.57;;
64832;SDS011;51290;45.060;38.948;2023-06-05T07:41:14;11.55;;;4.55;;
64832;SDS011;51290;45.060;38.948;2023-06-05T07:43:40;7.30;;;5.35;;
64832;SDS011;51290;45.060;38.948;2023-06-05T07:46:07;6.60;;;4.50;;
64832;SDS011;51290;45.060;38.948;2023-06-05T07:48:35;10.20;;;5.60;;
64832;SDS011;51290;45.060;38.948;2023-06-05T07:51:01;5.82;;;4.60;;
64832;SDS011;51290;45.060;38.948;2023-06-05T07:53:29;7.22;;;5.43;;
64832;SDS011;51290;45.060;38.948;2023-06-05T07:55:55;6.90;;;5.20;;
64832;SDS011;51290;45.060;38.948;2023-06-05T07:58:21;7.13;;;5.05;;
64832;SDS011;51290;45.060;38.948;2023-06-05T08:00:47;6.38;;;4.90;;
64832;SDS011;51290;45.060;38.948;2023-06-05T08:03:14;6.43;;;4.65;;
64832;SDS011;51290;45.060;38.948;2023-06-05T08:05:47;6.22;;;4.63;;
64832;SDS011;51290;45.060;38.948;2023-06-05T08:08:13;4.65;;;3.90;;
64832;SDS011;51290;45.060;38.948;2023-06-05T08:10:42;9.88;;;4.50;;
64832;SDS011;51290;45.060;38.948;2023-06-05T08:13:14;6.90;;;4.47;;
64832;SDS011;51290;45.060;38.948;2023-06-05T08:15:41;6.18;;;4.35;;
64832;SDS011;51290;45.060;38.948;2023-06-05T08:18:07;7.45;;;4.55;;
64832;SDS011;51290;45.060;38.948;2023-06-05T08:20:34;7.32;;;4.63;;
64832;SDS011;51290;45.060;38.948;2023-06-05T08:23:00;5.57;;;4.18;;
64832;SDS011;51290;45.060;38.948;2023-06-05T08:25:26;7.00;;;4.60;;
64832;SDS011;51290;45.060;38.948;2023-06-05T08:27:53;11.13;;;5.03;;
64832;SDS011;51290;45.060;38.948;2023-06-05T08:30:19;6.93;;;4.70;;
64832;SDS011;51290;45.060;38.948;2023-06-05T08:32:45;6.78;;;4.63;;
64832;SDS011;51290;45.060;38.948;2023-06-05T08:35:11;5.30;;;4.25;;
64832;SDS011;51290;45.060;38.948;2023-06-05T08:37:40;7.25;;;4.70;;
64832;SDS011;51290;45.060;38.948;2023-06-05T08:40:06;6.90;;;4.28;;
64832;SDS011;51290;45.060;38.948;2023-06-05T08:42:36;6.82;;;4.40;;
64832;SDS011;51290;45.060;38.948;2023-06-05T08:45:08;6.85;;;4.63;;
64832;SDS011;51290;45.060;38.948;2023-06-05T08:47:38;7.40;;;4.78;;
64832;SDS011;51290;45.060;38.948;2023-06-05T08:50:04;7.50;;;3.95;;
64832;SDS011;51290;45.060;38.948;2023-06-05T08:52:37;5.63;;;3.80;;
64832;SDS011;51290;45.060;38.948;2023-06-05T08:55:04;8.30;;;4.32;;
64832;SDS011;51290;45.060;38.948;2023-06-05T08:57:32;4.43;;;3.33;;
64832;SDS011;51290;45.060;38.948;2023-06-05T09:00:05;5.20;;;3.55;;
64832;SDS011;51290;45.060;38.948;2023-06-05T09:02:35;4.85;;;3.63;;
64832;SDS011;51290;45.060;38.948;2023-06-05T09:05:05;4.13;;;3.53;;
64832;SDS011;51290;45.060;38.948;2023-06-05T09:07:39;13.45;;;3.90;;
64832;SDS011;51290;45.060;38.948;2023-06-05T09:10:06;5.07;;;3.28;;
64832;SDS011;51290;45.060;38.948;2023-06-05T09:13:10;3.30;;;2.85;;
64832;SDS011;51290;45.060;38.948;2023-06-05T09:15:36;6.88;;;3.88;;
64832;SDS011;51290;45.060;38.948;2023-06-05T09:20:40;10.55;;;3.80;;
64832;SDS011;51290;45.060;38.948;2023-06-05T09:23:21;5.65;;;3.63;;
64832;SDS011;51290;45.060;38.948;2023-06-05T09:25:52;3.42;;;3.10;;
64832;SDS011;51290;45.060;38.948;2023-06-05T09:28:20;5.32;;;3.53;;
64832;SDS011;51290;45.060;38.948;2023-06-05T09:33:28;6.85;;;4.50;;
64832;SDS011;51290;45.060;38.948;2023-06-05T09:36:07;4.65;;;3.70;;
64832;SDS011;51290;45.060;38.948;2023-06-05T09:38:38;4.32;;;3.20;;
64832;SDS011;51290;45.060;38.948;2023-06-05T09:41:07;5.82;;;3.58;;
64832;SDS011;51290;45.060;38.948;2023-06-05T09:43:34;5.47;;;3.33;;
64832;SDS011;51290;45.060;38.948;2023-06-05T09:46:09;10.68;;;4.07;;
64832;SDS011;51290;45.060;38.948;2023-06-05T09:48:36;3.83;;;3.42;;
64832;SDS011;51290;45.060;38.948;2023-06-05T09:53:43;4.55;;;3.78;;
64832;SDS011;51290;45.060;38.948;2023-06-05T09:56:15;3.95;;;3.33;;
64832;SDS011;51290;45.060;38.948;2023-06-05T09:58:43;4.32;;;2.70;;
64832;SDS011;51290;45.060;38.948;2023-06-05T10:01:34;3.83;;;3.38;;
64832;SDS011;51290;45.060;38.948;2023-06-05T10:04:09;5.95;;;3.58;;
64832;SDS011;51290;45.060;38.948;2023-06-05T10:06:40;4.13;;;3.20;;
64832;SDS011;51290;45.060;38.948;2023-06-05T10:09:08;4.43;;;3.45;;
64832;SDS011;51290;45.060;38.948;2023-06-05T10:11:34;4.30;;;3.47;;
64832;SDS011;51290;45.060;38.948;2023-06-05T10:14:01;4.70;;;3.53;;
64832;SDS011;51290;45.060;38.948;2023-06-05T10:16:28;4.60;;;3.53;;
64832;SDS011;51290;45.060;38.948;2023-06-05T10:18:57;7.25;;;3.72;;
64832;SDS011;51290;45.060;38.948;2023-06-05T10:21:25;3.58;;;3.25;;
64832;SDS011;51290;45.060;38.948;2023-06-05T10:23:58;3.92;;;3.15;;
64832;SDS011;51290;45.060;38.948;2023-06-05T10:32:30;5.53;;;3.30;;
64832;SDS011;51290;45.060;38.948;2023-06-05T10:38:07;8.52;;;3.35;;
64832;SDS011;51290;45.060;38.948;2023-06-05T10:40:56;5.57;;;3.50;;
64832;SDS011;51290;45.060;38.948;2023-06-05T10:43:35;4.57;;;3.47;;
64832;SDS011;51290;45.060;38.948;2023-06-05T10:46:29;4.78;;;3.33;;
64832;SDS011;51290;45.060;38.948;2023-06-05T10:51:43;5.35;;;3.58;;
64832;SDS011;51290;45.060;38.948;2023-06-05T10:54:13;3.38;;;3.08;;
64832;SDS011;51290;45.060;38.948;2023-06-05T10:59:17;3.97;;;3.45;;
64832;SDS011;51290;45.060;38.948;2023-06-05T11:07:15;5.53;;;3.72;;
64832;SDS011;51290;45.060;38.948;2023-06-05T11:10:08;4.18;;;3.35;;
64832;SDS011;51290;45.060;38.948;2023-06-05T11:15:12;4.20;;;3.45;;
64832;SDS011;51290;45.060;38.948;2023-06-05T11:17:40;6.00;;;4.00;;
64832;SDS011;51290;45.060;38.948;2023-06-05T11:20:08;5.70;;;3.55;;
64832;SDS011;51290;45.060;38.948;2023-06-05T11:27:55;6.18;;;4.18;;
64832;SDS011;51290;45.060;38.948;2023-06-05T11:30:33;4.93;;;3.75;;
64832;SDS011;51290;45.060;38.948;2023-06-05T11:35:38;5.38;;;3.63;;
64832;SDS011;51290;45.060;38.948;2023-06-05T11:38:11;4.60;;;3.55;;
64832;SDS011;51290;45.060;38.948;2023-06-05T11:40:39;9.88;;;3.72;;
64832;SDS011;51290;45.060;38.948;2023-06-05T11:43:07;3.65;;;3.17;;
64832;SDS011;51290;45.060;38.948;2023-06-05T11:45:35;3.88;;;2.97;;
64832;SDS011;51290;45.060;38.948;2023-06-05T11:48:10;2.75;;;2.55;;
64832;SDS011;51290;45.060;38.948;2023-06-05T11:50:38;11.18;;;3.05;;
64832;SDS011;51290;45.060;38.948;2023-06-05T11:53:16;4.25;;;3.70;;
64832;SDS011;51290;45.060;38.948;2023-06-05T11:55:43;6.15;;;3.53;;
64832;SDS011;51290;45.060;38.948;2023-06-05T11:58:29;5.13;;;3.85;;
64832;SDS011;51290;45.060;38.948;2023-06-05T12:01:09;3.30;;;2.92;;
64832;SDS011;51290;45.060;38.948;2023-06-05T12:03:45;5.40;;;3.25;;
64832;SDS011;51290;45.060;38.948;2023-06-05T12:06:29;7.50;;;3.53;;
64832;SDS011;51290;45.060;38.948;2023-06-05T12:09:06;4.55;;;3.50;;
64832;SDS011;51290;45.060;38.948;2023-06-05T12:11:34;3.95;;;3.47;;
64832;SDS011;51290;45.060;38.948;2023-06-05T12:14:00;4.18;;;3.28;;
64832;SDS011;51290;45.060;38.948;2023-06-05T12:19:10;3.85;;;3.25;;
64832;SDS011;51290;45.060;38.948;2023-06-05T12:21:40;4.35;;;3.47;;
64832;SDS011;51290;45.060;38.948;2023-06-05T12:24:07;4.40;;;3.25;;
64832;SDS011;51290;45.060;38.948;2023-06-05T12:26:53;4.22;;;3.47;;
64832;SDS011;51290;45.060;38.948;2023-06-05T12:29:22;7.72;;;4.20;;
64832;SDS011;51290;45.060;38.948;2023-06-05T12:31:50;5.80;;;3.88;;
64832;SDS011;51290;45.060;38.948;2023-06-05T12:34:17;4.43;;;3.50;;
64832;SDS011;51290;45.060;38.948;2023-06-05T12:36:43;4.40;;;3.60;;
64832;SDS011;51290;45.060;38.948;2023-06-05T12:39:10;5.75;;;3.80;;
64832;SDS011;51290;45.060;38.948;2023-06-05T12:41:38;9.15;;;3.72;;
64832;SDS011;51290;45.060;38.948;2023-06-05T12:44:05;6.57;;;3.40;;
64832;SDS011;51290;45.060;38.948;2023-06-05T12:46:33;4.70;;;3.22;;
64832;SDS011;51290;45.060;38.948;2023-06-05T12:49:00;4.20;;;3.30;;
64832;SDS011;51290;45.060;38.948;2023-06-05T12:51:30;7.18;;;3.78;;
64832;SDS011;51290;45.060;38.948;2023-06-05T12:53:57;6.32;;;3.08;;
64832;SDS011;51290;45.060;38.948;2023-06-05T12:56:23;3.97;;;3.13;;
64832;SDS011;51290;45.060;38.948;2023-06-05T12:58:53;3.55;;;2.80;;
64832;SDS011;51290;45.060;38.948;2023-06-05T13:01:21;4.03;;;3.17;;
64832;SDS011;51290;45.060;38.948;2023-06-05T13:03:48;6.35;;;3.17;;
64832;SDS011;51290;45.060;38.948;2023-06-05T13:06:14;5.97;;;4.03;;
64832;SDS011;51290;45.060;38.948;2023-06-05T13:08:40;3.78;;;3.28;;
64832;SDS011;51290;45.060;38.948;2023-06-05T13:11:06;3.33;;;2.97;;
64832;SDS011;51290;45.060;38.948;2023-06-05T13:13:32;4.57;;;3.17;;
64832;SDS011;51290;45.060;38.948;2023-06-05T13:16:11;4.28;;;2.80;;
64832;SDS011;51290;45.060;38.948;2023-06-05T13:18:37;7.50;;;3.08;;
64832;SDS011;51290;45.060;38.948;2023-06-05T13:21:03;3.22;;;2.92;;
64832;SDS011;51290;45.060;38.948;2023-06-05T13:23:30;12.48;;;3.63;;
64832;SDS011;51290;45.060;38.948;2023-06-05T13:26:05;3.15;;;2.83;;
64832;SDS011;51290;45.060;38.948;2023-06-05T13:28:31;7.55;;;3.42;;
64832;SDS011;51290;45.060;38.948;2023-06-05T13:30:57;4.13;;;3.25;;
64832;SDS011;51290;45.060;38.948;2023-06-05T13:33:23;4.43;;;3.10;;
64832;SDS011;51290;45.060;38.948;2023-06-05T13:38:24;4.72;;;3.03;;
64832;SDS011;51290;45.060;38.948;2023-06-05T13:41:04;4.07;;;3.20;;
64832;SDS011;51290;45.060;38.948;2023-06-05T13:43:30;4.53;;;3.33;;
64832;SDS011;51290;45.060;38.948;2023-06-05T13:45:57;4.30;;;3.28;;
64832;SDS011;51290;45.060;38.948;2023-06-05T13:48:23;8.82;;;3.42;;
64832;SDS011;51290;45.060;38.948;2023-06-05T13:50:49;4.97;;;3.22;;
64832;SDS011;51290;45.060;38.948;2023-06-05T13:53:16;4.60;;;3.20;;
64832;SDS011;51290;45.060;38.948;2023-06-05T13:55:42;3.75;;;2.80;;
64832;SDS011;51290;45.060;38.948;2023-06-05T13:58:08;3.47;;;2.60;;
64832;SDS011;51290;45.060;38.948;2023-06-05T14:00:36;3.63;;;2.92;;
64832;SDS011;51290;45.060;38.948;2023-06-05T14:03:02;6.47;;;3.47;;
64832;SDS011;51290;45.060;38.948;2023-06-05T14:05:29;4.47;;;2.90;;
64832;SDS011;51290;45.060;38.948;2023-06-05T14:07:56;5.35;;;3.20;;
64832;SDS011;51290;45.060;38.948;2023-06-05T14:10:22;2.80;;;2.60;;
64832;SDS011;51290;45.060;38.948;2023-06-05T14:12:50;6.07;;;3.45;;
64832;SDS011;51290;45.060;38.948;2023-06-05T14:15:17;14.02;;;3.40;;
64832;SDS011;51290;45.060;38.948;2023-06-05T14:17:51;3.78;;;3.08;;
64832;SDS011;51290;45.060;38.948;2023-06-05T14:20:18;3.80;;;2.53;;
64832;SDS011;51290;45.060;38.948;2023-06-05T14:22:45;3.72;;;3.13;;
64832;SDS011;51290;45.060;38.948;2023-06-05T14:25:12;10.95;;;3.75;;
64832;SDS011;51290;45.060;38.948;2023-06-05T14:27:38;4.97;;;3.55;;
64832;SDS011;51290;45.060;38.948;2023-06-05T14:30:06;3.30;;;3.00;;
64832;SDS011;51290;45.060;38.948;2023-06-05T14:32:34;4.72;;;3.15;;
64832;SDS011;51290;45.060;38.948;2023-06-05T14:35:01;7.43;;;3.38;;
64832;SDS011;51290;45.060;38.948;2023-06-05T14:37:27;9.02;;;3.40;;
64832;SDS011;51290;45.060;38.948;2023-06-05T14:39:53;4.80;;;3.05;;
64832;SDS011;51290;45.060;38.948;2023-06-05T14:42:19;6.60;;;3.25;;
64832;SDS011;51290;45.060;38.948;2023-06-05T14:44:47;5.90;;;3.25;;
64832;SDS011;51290;45.060;38.948;2023-06-05T14:47:13;3.50;;;3.15;;
64832;SDS011;51290;45.060;38.948;2023-06-05T14:49:40;3.58;;;3.08;;
64832;SDS011;51290;45.060;38.948;2023-06-05T14:52:06;4.72;;;3.30;;
64832;SDS011;51290;45.060;38.948;2023-06-05T14:54:32;4.00;;;3.05;;
64832;SDS011;51290;45.060;38.948;2023-06-05T14:56:58;3.47;;;2.85;;
64832;SDS011;51290;45.060;38.948;2023-06-05T14:59:24;5.57;;;3.22;;
64832;SDS011;51290;45.060;38.948;2023-06-05T15:01:50;4.65;;;3.22;;
64832;SDS011;51290;45.060;38.948;2023-06-05T15:04:19;3.05;;;2.75;;
64832;SDS011;51290;45.060;38.948;2023-06-05T15:06:45;3.90;;;3.13;;
64832;SDS011;51290;45.060;38.948;2023-06-05T15:09:11;3.08;;;2.75;;
64832;SDS011;51290;45.060;38.948;2023-06-05T15:11:57;5.28;;;3.00;;
64832;SDS011;51290;45.060;38.948;2023-06-05T15:14:25;3.30;;;2.80;;
64832;SDS011;51290;45.060;38.948;2023-06-05T15:16:51;4.15;;;2.90;;
64832;SDS011;51290;45.060;38.948;2023-06-05T15:19:17;2.95;;;2.58;;
64832;SDS011;51290;45.060;38.948;2023-06-05T15:21:43;4.03;;;3.00;;
64832;SDS011;51290;45.060;38.948;2023-06-05T15:24:09;7.88;;;3.25;;
64832;SDS011;51290;45.060;38.948;2023-06-05T15:26:38;2.58;;;2.13;;
64832;SDS011;51290;45.060;38.948;2023-06-05T15:29:04;4.07;;;2.92;;